sensor_id;sensor_type;location;lat;lon;timestamp;temperature;humidity
75457;SHT31;64036;48.266;14.192;2023-06-22T00:02:17;20.93;65.42
75457;SHT31;64036;48.266;14.192;2023-06-22T00:04:43;20.92;65.32
75457;SHT31;64036;48.266;14.192;2023-06-22T00:07:09;20.89;65.32
75457;SHT31;64036;48.266;14.192;2023-06-22T00:09:35;20.87;65.35
75457;SHT31;64036;48.266;14.192;2023-06-22T00:12:01;20.85;65.69
75457;SHT31;64036;48.266;14.192;2023-06-22T00:14:27;20.78;66.37
75457;SHT31;64036;48.266;14.192;2023-06-22T00:16:53;20.73;66.38
75457;SHT31;64036;48.266;14.192;2023-06-22T00:19:20;20.70;66.71
75457;SHT31;64036;48.266;14.192;2023-06-22T00:21:47;20.55;67.37
75457;SHT31;64036;48.266;14.192;2023-06-22T00:24:17;20.39;67.76
75457;SHT31;64036;48.266;14.192;2023-06-22T00:26:50;20.30;67.74
75457;SHT31;64036;48.266;14.192;2023-06-22T00:29:15;20.30;67.66
75457;SHT31;64036;48.266;14.192;2023-06-22T00:31:42;20.25;67.88
75457;SHT31;64036;48.266;14.192;2023-06-22T00:34:08;20.19;68.13
75457;SHT31;64036;48.266;14.192;2023-06-22T00:36:34;20.15;68.20
75457;SHT31;64036;48.266;14.192;2023-06-22T00:39:01;20.12;68.16
75457;SHT31;64036;48.266;14.192;2023-06-22T00:41:27;20.08;68.39
75457;SHT31;64036;48.266;14.192;2023-06-22T00:43:54;20.07;68.25
75457;SHT31;64036;48.266;14.192;2023-06-22T00:46:21;20.08;68.24
75457;SHT31;64036;48.266;14.192;2023-06-22T00:48:48;20.08;68.15
75457;SHT31;64036;48.266;14.192;2023-06-22T00:51:14;20.08;68.14
75457;SHT31;64036;48.266;14.192;2023-06-22T00:53:40;20.04;68.27
75457;SHT31;64036;48.266;14.192;2023-06-22T00:56:08;20.00;68.26
75457;SHT31;64036;48.266;14.192;2023-06-22T00:58:37;20.00;68.20
75457;SHT31;64036;48.266;14.192;2023-06-22T01:01:06;20.02;68.11
75457;SHT31;64036;48.266;14.192;2023-06-22T01:03:33;20.01;68.00
75457;SHT31;64036;48.266;14.192;2023-06-22T01:06:00;19.99;68.04
75457;SHT31;64036;48.266;14.192;2023-06-22T01:09:21;20.00;68.02
75457;SHT31;64036;48.266;14.192;2023-06-22T01:11:36;20.02;67.96
75457;SHT31;64036;48.266;14.192;2023-06-22T01:14:14;19.99;68.55
75457;SHT31;64036;48.266;14.192;2023-06-22T01:16:51;19.92;68.55
75457;SHT31;64036;48.266;14.192;2023-06-22T01:22:20;19.97;68.18
75457;SHT31;64036;48.266;14.192;2023-06-22T01:25:07;19.99;68.02
75457;SHT31;64036;48.266;14.192;2023-06-22T01:30:40;20.03;68.02
75457;SHT31;64036;48.266;14.192;2023-06-22T01:33:10;20.05;67.94
75457;SHT31;64036;48.266;14.192;2023-06-22T01:35:38;20.06;67.95
75457;SHT31;64036;48.266;14.192;2023-06-22T01:38:05;20.08;67.85
75457;SHT31;64036;48.266;14.192;2023-06-22T01:40:32;20.08;67.91
75457;SHT31;64036;48.266;14.192;2023-06-22T01:43:00;20.07;68.31
75457;SHT31;64036;48.266;14.192;2023-06-22T01:45:27;20.04;68.08
75457;SHT31;64036;48.266;14.192;2023-06-22T01:47:53;20.04;67.97
75457;SHT31;64036;48.266;14.192;2023-06-22T01:50:19;20.07;67.74
75457;SHT31;64036;48.266;14.192;2023-06-22T01:52:46;20.09;67.47
75457;SHT31;64036;48.266;14.192;2023-06-22T01:55:12;20.09;67.41
75457;SHT31;64036;48.266;14.192;2023-06-22T01:57:38;20.12;67.66
75457;SHT31;64036;48.266;14.192;2023-06-22T02:00:06;20.11;67.74
75457;SHT31;64036;48.266;14.192;2023-06-22T02:02:44;20.10;67.76
75457;SHT31;64036;48.266;14.192;2023-06-22T02:05:19;20.09;67.62
75457;SHT31;64036;48.266;14.192;2023-06-22T02:10:46;20.09;67.58
75457;SHT31;64036;48.266;14.192;2023-06-22T02:13:13;20.10;67.47
75457;SHT31;64036;48.266;14.192;2023-06-22T02:15:41;20.10;67.36
75457;SHT31;64036;48.266;14.192;2023-06-22T02:18:07;20.09;67.39
75457;SHT31;64036;48.266;14.192;2023-06-22T02:20:35;20.09;67.40
75457;SHT31;64036;48.266;14.192;2023-06-22T02:23:03;20.08;67.45
75457;SHT31;64036;48.266;14.192;2023-06-22T02:25:28;20.05;67.59
75457;SHT31;64036;48.266;14.192;2023-06-22T02:27:54;20.02;67.70
75457;SHT31;64036;48.266;14.192;2023-06-22T02:30:20;20.01;67.63
75457;SHT31;64036;48.266;14.192;2023-06-22T02:32:45;20.00;67.57
75457;SHT31;64036;48.266;14.192;2023-06-22T02:35:11;20.00;67.59
75457;SHT31;64036;48.266;14.192;2023-06-22T02:37:37;19.98;67.90
75457;SHT31;64036;48.266;14.192;2023-06-22T02:40:06;19.92;68.06
75457;SHT31;64036;48.266;14.192;2023-06-22T02:42:37;19.86;68.03
75457;SHT31;64036;48.266;14.192;2023-06-22T02:45:04;19.81;68.02
75457;SHT31;64036;48.266;14.192;2023-06-22T02:47:30;19.77;68.03
75457;SHT31;64036;48.266;14.192;2023-06-22T02:49:57;19.73;68.10
75457;SHT31;64036;48.266;14.192;2023-06-22T02:52:22;19.68;68.25
75457;SHT31;64036;48.266;14.192;2023-06-22T02:54:48;19.65;68.33
75457;SHT31;64036;48.266;14.192;2023-06-22T02:57:13;19.64;68.24
75457;SHT31;64036;48.266;14.192;2023-06-22T02:59:40;19.63;68.36
75457;SHT31;64036;48.266;14.192;2023-06-22T03:02:07;19.63;68.37
75457;SHT31;64036;48.266;14.192;2023-06-22T03:04:34;19.63;68.41
75457;SHT31;64036;48.266;14.192;2023-06-22T03:07:01;19.64;68.41
75457;SHT31;64036;48.266;14.192;2023-06-22T03:09:27;19.64;68.37
75457;SHT31;64036;48.266;14.192;2023-06-22T03:11:54;19.66;68.39
75457;SHT31;64036;48.266;14.192;2023-06-22T03:14:20;19.66;68.39
75457;SHT31;64036;48.266;14.192;2023-06-22T03:16:45;19.66;68.64
75457;SHT31;64036;48.266;14.192;2023-06-22T03:19:11;19.64;68.81
75457;SHT31;64036;48.266;14.192;2023-06-22T03:21:38;19.63;68.62
75457;SHT31;64036;48.266;14.192;2023-06-22T03:24:04;19.65;68.51
75457;SHT31;64036;48.266;14.192;2023-06-22T03:26:31;19.67;68.44
75457;SHT31;64036;48.266;14.192;2023-06-22T03:28:57;19.71;68.32
75457;SHT31;64036;48.266;14.192;2023-06-22T03:31:23;19.75;68.20
75457;SHT31;64036;48.266;14.192;2023-06-22T03:33:49;19.77;68.14
75457;SHT31;64036;48.266;14.192;2023-06-22T03:36:16;19.80;68.02
75457;SHT31;64036;48.266;14.192;2023-06-22T03:38:45;19.87;67.84
75457;SHT31;64036;48.266;14.192;2023-06-22T03:41:12;19.93;67.71
75457;SHT31;64036;48.266;14.192;2023-06-22T03:43:39;19.99;67.65
75457;SHT31;64036;48.266;14.192;2023-06-22T03:46:05;20.05;67.63
75457;SHT31;64036;48.266;14.192;2023-06-22T03:48:31;20.11;67.62
75457;SHT31;64036;48.266;14.192;2023-06-22T03:50:58;20.18;67.52
75457;SHT31;64036;48.266;14.192;2023-06-22T03:53:24;20.24;67.45
75457;SHT31;64036;48.266;14.192;2023-06-22T03:55:51;20.32;67.39
75457;SHT31;64036;48.266;14.192;2023-06-22T03:58:18;20.41;67.33
75457;SHT31;64036;48.266;14.192;2023-06-22T04:00:45;20.52;67.12
75457;SHT31;64036;48.266;14.192;2023-06-22T04:03:12;20.66;66.92
75457;SHT31;64036;48.266;14.192;2023-06-22T04:05:40;20.80;66.58
75457;SHT31;64036;48.266;14.192;2023-06-22T04:08:06;20.94;66.28
75457;SHT31;64036;48.266;14.192;2023-06-22T04:10:32;21.11;66.08
75457;SHT31;64036;48.266;14.192;2023-06-22T04:12:58;21.34;65.61
75457;SHT31;64036;48.266;14.192;2023-06-22T04:15:24;21.61;65.14
75457;SHT31;64036;48.266;14.192;2023-06-22T04:17:49;21.89;64.71
75457;SHT31;64036;48.266;14.192;2023-06-22T04:20:15;22.19;64.28
75457;SHT31;64036;48.266;14.192;2023-06-22T04:22:40;22.51;63.79
75457;SHT31;64036;48.266;14.192;2023-06-22T04:25:06;22.77;62.96
75457;SHT31;64036;48.266;14.192;2023-06-22T04:27:35;23.08;62.55
75457;SHT31;64036;48.266;14.192;2023-06-22T04:30:07;23.31;62.28
75457;SHT31;64036;48.266;14.192;2023-06-22T04:32:34;23.64;61.90
75457;SHT31;64036;48.266;14.192;2023-06-22T04:35:04;23.75;61.27
75457;SHT31;64036;48.266;14.192;2023-06-22T04:37:31;23.81;60.66
75457;SHT31;64036;48.266;14.192;2023-06-22T04:40:00;23.99;60.03
75457;SHT31;64036;48.266;14.192;2023-06-22T04:42:26;24.24;59.61
75457;SHT31;64036;48.266;14.192;2023-06-22T04:44:52;24.63;59.47
75457;SHT31;64036;48.266;14.192;2023-06-22T04:47:18;25.07;59.00
75457;SHT31;64036;48.266;14.192;2023-06-22T04:49:44;25.59;58.18
75457;SHT31;64036;48.266;14.192;2023-06-22T04:52:10;26.06;57.09
75457;SHT31;64036;48.266;14.192;2023-06-22T04:54:39;26.60;56.30
75457;SHT31;64036;48.266;14.192;2023-06-22T04:57:13;26.98;55.59
75457;SHT31;64036;48.266;14.192;2023-06-22T04:59:39;27.36;54.38
75457;SHT31;64036;48.266;14.192;2023-06-22T05:02:06;27.67;53.31
75457;SHT31;64036;48.266;14.192;2023-06-22T05:04:33;28.12;52.28
75457;SHT31;64036;48.266;14.192;2023-06-22T05:07:03;28.52;51.61
75457;SHT31;64036;48.266;14.192;2023-06-22T05:09:29;28.90;50.57
75457;SHT31;64036;48.266;14.192;2023-06-22T05:11:56;29.32;49.64
75457;SHT31;64036;48.266;14.192;2023-06-22T05:14:21;29.63;49.23
75457;SHT31;64036;48.266;14.192;2023-06-22T05:16:48;29.96;48.78
75457;SHT31;64036;48.266;14.192;2023-06-22T05:19:14;30.30;48.04
75457;SHT31;64036;48.266;14.192;2023-06-22T05:21:40;30.63;47.75
75457;SHT31;64036;48.266;14.192;2023-06-22T05:24:05;31.07;46.60
75457;SHT31;64036;48.266;14.192;2023-06-22T05:26:32;31.47;46.11
75457;SHT31;64036;48.266;14.192;2023-06-22T05:28:59;31.87;45.18
75457;SHT31;64036;48.266;14.192;2023-06-22T05:31:27;32.22;44.54
75457;SHT31;64036;48.266;14.192;2023-06-22T05:33:54;32.56;43.18
75457;SHT31;64036;48.266;14.192;2023-06-22T05:36:20;32.82;42.12
75457;SHT31;64036;48.266;14.192;2023-06-22T05:38:50;33.08;41.57
75457;SHT31;64036;48.266;14.192;2023-06-22T05:41:17;33.41;40.88
75457;SHT31;64036;48.266;14.192;2023-06-22T05:43:43;33.78;40.56
75457;SHT31;64036;48.266;14.192;2023-06-22T05:46:08;34.15;39.69
75457;SHT31;64036;48.266;14.192;2023-06-22T05:48:34;34.41;39.33
75457;SHT31;64036;48.266;14.192;2023-06-22T05:50:59;34.63;38.98
75457;SHT31;64036;48.266;14.192;2023-06-22T05:53:25;34.95;38.15
75457;SHT31;64036;48.266;14.192;2023-06-22T05:55:51;35.28;37.26
75457;SHT31;64036;48.266;14.192;2023-06-22T05:58:16;35.38;37.43
75457;SHT31;64036;48.266;14.192;2023-06-22T06:00:42;35.79;36.94
75457;SHT31;64036;48.266;14.192;2023-06-22T06:03:08;36.06;36.32
75457;SHT31;64036;48.266;14.192;2023-06-22T06:05:35;36.22;35.83
75457;SHT31;64036;48.266;14.192;2023-06-22T06:08:02;36.13;35.57
75457;SHT31;64036;48.266;14.192;2023-06-22T06:10:31;36.27;35.02
75457;SHT31;64036;48.266;14.192;2023-06-22T06:12:58;36.56;34.40
75457;SHT31;64036;48.266;14.192;2023-06-22T06:15:26;36.77;34.12
75457;SHT31;64036;48.266;14.192;2023-06-22T06:17:52;37.18;33.40
75457;SHT31;64036;48.266;14.192;2023-06-22T06:20:19;37.19;32.66
75457;SHT31;64036;48.266;14.192;2023-06-22T06:22:50;37.17;32.62
75457;SHT31;64036;48.266;14.192;2023-06-22T06:25:15;37.55;32.73
75457;SHT31;64036;48.266;14.192;2023-06-22T06:27:48;37.82;31.99
75457;SHT31;64036;48.266;14.192;2023-06-22T06:30:17;37.97;31.85
75457;SHT31;64036;48.266;14.192;2023-06-22T06:32:44;38.25;31.57
75457;SHT31;64036;48.266;14.192;2023-06-22T06:35:11;38.57;30.59
75457;SHT31;64036;48.266;14.192;2023-06-22T06:37:39;38.91;30.77
75457;SHT31;64036;48.266;14.192;2023-06-22T06:40:07;39.40;30.62
75457;SHT31;64036;48.266;14.192;2023-06-22T06:42:53;39.94;29.28
75457;SHT31;64036;48.266;14.192;2023-06-22T06:45:22;40.00;28.36
75457;SHT31;64036;48.266;14.192;2023-06-22T06:47:50;40.09;28.97
75457;SHT31;64036;48.266;14.192;2023-06-22T06:50:17;40.56;28.44
75457;SHT31;64036;48.266;14.192;2023-06-22T06:52:43;40.83;28.23
75457;SHT31;64036;48.266;14.192;2023-06-22T06:55:09;41.17;27.90
75457;SHT31;64036;48.266;14.192;2023-06-22T06:57:37;41.30;27.89
75457;SHT31;64036;48.266;14.192;2023-06-22T07:00:07;41.33;27.43
75457;SHT31;64036;48.266;14.192;2023-06-22T07:02:39;41.31;27.45
75457;SHT31;64036;48.266;14.192;2023-06-22T07:05:06;41.32;27.04
75457;SHT31;64036;48.266;14.192;2023-06-22T07:07:32;40.55;27.62
75457;SHT31;64036;48.266;14.192;2023-06-22T07:09:58;40.40;27.76
75457;SHT31;64036;48.266;14.192;2023-06-22T07:12:24;40.67;28.34
75457;SHT31;64036;48.266;14.192;2023-06-22T07:14:50;40.98;27.97
75457;SHT31;64036;48.266;14.192;2023-06-22T07:17:17;41.11;27.77
75457;SHT31;64036;48.266;14.192;2023-06-22T07:19:42;41.23;27.21
75457;SHT31;64036;48.266;14.192;2023-06-22T07:22:08;41.27;27.29
75457;SHT31;64036;48.266;14.192;2023-06-22T07:24:33;41.61;27.41
75457;SHT31;64036;48.266;14.192;2023-06-22T07:26:59;41.40;26.98
75457;SHT31;64036;48.266;14.192;2023-06-22T07:29:25;41.35;27.13
75457;SHT31;64036;48.266;14.192;2023-06-22T07:31:52;41.22;27.48
75457;SHT31;64036;48.266;14.192;2023-06-22T07:34:18;41.06;27.70
75457;SHT31;64036;48.266;14.192;2023-06-22T07:36:44;41.15;27.13
75457;SHT31;64036;48.266;14.192;2023-06-22T07:39:11;41.57;26.79
75457;SHT31;64036;48.266;14.192;2023-06-22T07:41:38;42.09;26.42
75457;SHT31;64036;48.266;14.192;2023-06-22T07:44:05;42.10;27.20
75457;SHT31;64036;48.266;14.192;2023-06-22T07:46:32;41.92;26.31
75457;SHT31;64036;48.266;14.192;2023-06-22T07:48:58;41.62;26.27
75457;SHT31;64036;48.266;14.192;2023-06-22T07:51:24;41.50;26.84
75457;SHT31;64036;48.266;14.192;2023-06-22T07:53:50;41.99;27.19
75457;SHT31;64036;48.266;14.192;2023-06-22T07:56:16;42.46;26.84
75457;SHT31;64036;48.266;14.192;2023-06-22T07:58:46;42.00;27.52
75457;SHT31;64036;48.266;14.192;2023-06-22T08:01:16;41.54;26.92
75457;SHT31;64036;48.266;14.192;2023-06-22T08:03:44;41.09;27.32
75457;SHT31;64036;48.266;14.192;2023-06-22T08:06:10;40.46;28.06
75457;SHT31;64036;48.266;14.192;2023-06-22T08:08:36;40.50;27.79
75457;SHT31;64036;48.266;14.192;2023-06-22T08:11:02;40.55;28.27
75457;SHT31;64036;48.266;14.192;2023-06-22T08:13:28;40.70;28.08
75457;SHT31;64036;48.266;14.192;2023-06-22T08:15:53;40.59;28.12
75457;SHT31;64036;48.266;14.192;2023-06-22T08:18:19;40.54;28.63
75457;SHT31;64036;48.266;14.192;2023-06-22T08:20:45;40.37;29.06
75457;SHT31;64036;48.266;14.192;2023-06-22T08:23:11;40.06;28.80
75457;SHT31;64036;48.266;14.192;2023-06-22T08:25:36;39.60;29.23
75457;SHT31;64036;48.266;14.192;2023-06-22T08:28:03;39.39;29.77
75457;SHT31;64036;48.266;14.192;2023-06-22T08:30:29;39.19;30.55
75457;SHT31;64036;48.266;14.192;2023-06-22T08:32:55;39.49;30.11
75457;SHT31;64036;48.266;14.192;2023-06-22T08:35:24;39.80;30.14
75457;SHT31;64036;48.266;14.192;2023-06-22T08:37:50;39.96;29.47
75457;SHT31;64036;48.266;14.192;2023-06-22T08:40:19;40.28;29.56
75457;SHT31;64036;48.266;14.192;2023-06-22T08:42:46;40.17;29.87
75457;SHT31;64036;48.266;14.192;2023-06-22T08:45:12;40.07;29.68
75457;SHT31;64036;48.266;14.192;2023-06-22T08:47:39;39.67;30.41
75457;SHT31;64036;48.266;14.192;2023-06-22T08:50:06;39.14;30.10
75457;SHT31;64036;48.266;14.192;2023-06-22T08:52:34;38.62;30.74
75457;SHT31;64036;48.266;14.192;2023-06-22T08:55:00;38.95;31.29
75457;SHT31;64036;48.266;14.192;2023-06-22T08:57:26;39.09;30.38
75457;SHT31;64036;48.266;14.192;2023-06-22T08:59:53;39.20;30.29
75457;SHT31;64036;48.266;14.192;2023-06-22T09:02:19;39.32;29.93
75457;SHT31;64036;48.266;14.192;2023-06-22T09:04:48;39.59;30.34
75457;SHT31;64036;48.266;14.192;2023-06-22T09:07:14;39.98;30.64
75457;SHT31;64036;48.266;14.192;2023-06-22T09:09:47;40.38;30.27
75457;SHT31;64036;48.266;14.192;2023-06-22T09:12:13;40.62;29.79
75457;SHT31;64036;48.266;14.192;2023-06-22T09:14:38;40.74;30.63
75457;SHT31;64036;48.266;14.192;2023-06-22T09:17:04;41.00;30.07
75457;SHT31;64036;48.266;14.192;2023-06-22T09:19:30;41.19;29.73
75457;SHT31;64036;48.266;14.192;2023-06-22T09:21:55;41.04;29.54
75457;SHT31;64036;48.266;14.192;2023-06-22T09:24:21;40.84;29.65
75457;SHT31;64036;48.266;14.192;2023-06-22T09:26:47;40.48;30.21
75457;SHT31;64036;48.266;14.192;2023-06-22T09:29:12;40.26;29.86
75457;SHT31;64036;48.266;14.192;2023-06-22T09:31:38;40.15;29.94
75457;SHT31;64036;48.266;14.192;2023-06-22T09:34:04;40.29;30.56
75457;SHT31;64036;48.266;14.192;2023-06-22T09:36:29;40.63;30.93
75457;SHT31;64036;48.266;14.192;2023-06-22T09:38:55;40.71;30.51
75457;SHT31;64036;48.266;14.192;2023-06-22T09:41:23;40.36;30.64
75457;SHT31;64036;48.266;14.192;2023-06-22T09:43:50;39.77;31.01
75457;SHT31;64036;48.266;14.192;2023-06-22T09:46:16;39.30;31.86
75457;SHT31;64036;48.266;14.192;2023-06-22T09:48:42;39.35;31.00
75457;SHT31;64036;48.266;14.192;2023-06-22T09:51:08;39.17;31.57
75457;SHT31;64036;48.266;14.192;2023-06-22T09:53:33;38.19;31.95
75457;SHT31;64036;48.266;14.192;2023-06-22T09:56:02;37.96;32.83
75457;SHT31;64036;48.266;14.192;2023-06-22T09:58:28;37.78;33.18
75457;SHT31;64036;48.266;14.192;2023-06-22T10:00:54;37.72;33.48
75457;SHT31;64036;48.266;14.192;2023-06-22T10:03:20;37.52;34.07
75457;SHT31;64036;48.266;14.192;2023-06-22T10:05:46;37.14;34.08
75457;SHT31;64036;48.266;14.192;2023-06-22T10:08:12;37.42;34.57
75457;SHT31;64036;48.266;14.192;2023-06-22T10:10:37;37.47;34.80
75457;SHT31;64036;48.266;14.192;2023-06-22T10:13:08;37.06;35.36
75457;SHT31;64036;48.266;14.192;2023-06-22T10:15:35;36.83;35.64
75457;SHT31;64036;48.266;14.192;2023-06-22T10:18:01;36.97;36.39
75457;SHT31;64036;48.266;14.192;2023-06-22T10:20:27;37.12;36.26
75457;SHT31;64036;48.266;14.192;2023-06-22T10:22:53;37.25;35.85
75457;SHT31;64036;48.266;14.192;2023-06-22T10:25:19;37.14;35.31
75457;SHT31;64036;48.266;14.192;2023-06-22T10:27:45;36.90;35.27
75457;SHT31;64036;48.266;14.192;2023-06-22T10:30:11;36.83;35.43
75457;SHT31;64036;48.266;14.192;2023-06-22T10:32:41;36.73;35.92
75457;SHT31;64036;48.266;14.192;2023-06-22T10:35:10;36.52;36.10
75457;SHT31;64036;48.266;14.192;2023-06-22T10:37:38;36.35;36.49
75457;SHT31;64036;48.266;14.192;2023-06-22T10:40:04;36.11;36.73
75457;SHT31;64036;48.266;14.192;2023-06-22T10:42:30;35.85;37.07
75457;SHT31;64036;48.266;14.192;2023-06-22T10:44:56;35.72;37.12
75457;SHT31;64036;48.266;14.192;2023-06-22T10:47:22;35.42;37.44
75457;SHT31;64036;48.266;14.192;2023-06-22T10:49:47;35.41;38.68
75457;SHT31;64036;48.266;14.192;2023-06-22T10:52:13;35.40;38.63
75457;SHT31;64036;48.266;14.192;2023-06-22T10:54:38;35.53;38.06
75457;SHT31;64036;48.266;14.192;2023-06-22T10:57:04;35.22;38.78
75457;SHT31;64036;48.266;14.192;2023-06-22T10:59:30;34.88;38.93
75457;SHT31;64036;48.266;14.192;2023-06-22T11:01:56;34.76;39.72
75457;SHT31;64036;48.266;14.192;2023-06-22T11:04:22;34.66;40.79
75457;SHT31;64036;48.266;14.192;2023-06-22T11:06:48;34.59;40.07
75457;SHT31;64036;48.266;14.192;2023-06-22T11:09:14;34.28;40.18
75457;SHT31;64036;48.266;14.192;2023-06-22T11:11:45;34.17;40.59
75457;SHT31;64036;48.266;14.192;2023-06-22T11:14:12;34.33;40.65
75457;SHT31;64036;48.266;14.192;2023-06-22T11:16:37;34.50;40.52
75457;SHT31;64036;48.266;14.192;2023-06-22T11:19:04;34.67;39.79
75457;SHT31;64036;48.266;14.192;2023-06-22T11:21:30;34.63;40.97
75457;SHT31;64036;48.266;14.192;2023-06-22T11:23:56;34.40;40.92
75457;SHT31;64036;48.266;14.192;2023-06-22T11:26:23;34.25;40.74
75457;SHT31;64036;48.266;14.192;2023-06-22T11:28:52;34.11;41.07
75457;SHT31;64036;48.266;14.192;2023-06-22T11:31:18;34.17;41.94
75457;SHT31;64036;48.266;14.192;2023-06-22T11:33:43;34.28;40.47
75457;SHT31;64036;48.266;14.192;2023-06-22T11:36:11;34.26;39.94
75457;SHT31;64036;48.266;14.192;2023-06-22T11:38:37;34.16;39.50
75457;SHT31;64036;48.266;14.192;2023-06-22T11:41:05;34.14;39.90
75457;SHT31;64036;48.266;14.192;2023-06-22T11:43:31;34.10;40.17
75457;SHT31;64036;48.266;14.192;2023-06-22T11:45:57;34.05;39.50
75457;SHT31;64036;48.266;14.192;2023-06-22T11:48:26;34.22;39.51
75457;SHT31;64036;48.266;14.192;2023-06-22T11:50:52;34.40;39.82
75457;SHT31;64036;48.266;14.192;2023-06-22T11:53:17;34.51;39.99
75457;SHT31;64036;48.266;14.192;2023-06-22T11:55:43;34.72;40.66
75457;SHT31;64036;48.266;14.192;2023-06-22T11:58:09;34.68;41.11
75457;SHT31;64036;48.266;14.192;2023-06-22T12:00:37;34.54;40.30
75457;SHT31;64036;48.266;14.192;2023-06-22T12:03:02;34.48;40.12
75457;SHT31;64036;48.266;14.192;2023-06-22T12:05:28;34.50;40.44
75457;SHT31;64036;48.266;14.192;2023-06-22T12:07:54;34.39;41.84
75457;SHT31;64036;48.266;14.192;2023-06-22T12:10:24;34.41;41.06
75457;SHT31;64036;48.266;14.192;2023-06-22T12:12:51;34.47;41.22
75457;SHT31;64036;48.266;14.192;2023-06-22T12:15:16;34.63;41.67
75457;SHT31;64036;48.266;14.192;2023-06-22T12:17:42;34.65;40.33
75457;SHT31;64036;48.266;14.192;2023-06-22T12:20:08;34.66;40.56
75457;SHT31;64036;48.266;14.192;2023-06-22T12:22:34;34.71;40.94
75457;SHT31;64036;48.266;14.192;2023-06-22T12:25:03;34.65;40.37
75457;SHT31;64036;48.266;14.192;2023-06-22T12:27:29;34.44;41.10
75457;SHT31;64036;48.266;14.192;2023-06-22T12:29:55;34.50;41.73
75457;SHT31;64036;48.266;14.192;2023-06-22T12:32:21;34.59;40.92
75457;SHT31;64036;48.266;14.192;2023-06-22T12:34:47;34.61;42.16
75457;SHT31;64036;48.266;14.192;2023-06-22T12:37:13;34.51;41.34
75457;SHT31;64036;48.266;14.192;2023-06-22T12:39:40;34.42;43.07
75457;SHT31;64036;48.266;14.192;2023-06-22T12:42:06;34.59;42.77
75457;SHT31;64036;48.266;14.192;2023-06-22T12:44:40;34.44;41.54
75457;SHT31;64036;48.266;14.192;2023-06-22T12:47:06;34.18;41.21
75457;SHT31;64036;48.266;14.192;2023-06-22T12:49:34;34.05;41.29
75457;SHT31;64036;48.266;14.192;2023-06-22T12:52:01;34.13;43.19
75457;SHT31;64036;48.266;14.192;2023-06-22T12:54:27;34.22;42.88
75457;SHT31;64036;48.266;14.192;2023-06-22T12:56:56;34.14;42.60
75457;SHT31;64036;48.266;14.192;2023-06-22T12:59:28;34.03;43.05
75457;SHT31;64036;48.266;14.192;2023-06-22T13:01:53;34.02;43.13
75457;SHT31;64036;48.266;14.192;2023-06-22T13:04:19;33.97;42.20
75457;SHT31;64036;48.266;14.192;2023-06-22T13:06:46;33.81;42.76
75457;SHT31;64036;48.266;14.192;2023-06-22T13:09:13;33.68;42.85
75457;SHT31;64036;48.266;14.192;2023-06-22T13:11:40;33.60;43.36
75457;SHT31;64036;48.266;14.192;2023-06-22T13:14:07;33.50;44.12
75457;SHT31;64036;48.266;14.192;2023-06-22T13:16:33;33.27;43.81
75457;SHT31;64036;48.266;14.192;2023-06-22T13:18:58;33.21;43.61
75457;SHT31;64036;48.266;14.192;2023-06-22T13:21:24;33.27;43.45
75457;SHT31;64036;48.266;14.192;2023-06-22T13:23:49;33.31;44.23
75457;SHT31;64036;48.266;14.192;2023-06-22T13:26:15;33.24;43.90
75457;SHT31;64036;48.266;14.192;2023-06-22T13:28:41;33.21;44.35
75457;SHT31;64036;48.266;14.192;2023-06-22T13:31:06;33.15;44.91
75457;SHT31;64036;48.266;14.192;2023-06-22T13:33:35;33.13;44.29
75457;SHT31;64036;48.266;14.192;2023-06-22T13:36:06;33.20;43.04
75457;SHT31;64036;48.266;14.192;2023-06-22T13:38:32;33.26;43.89
75457;SHT31;64036;48.266;14.192;2023-06-22T13:41:03;33.30;44.30
75457;SHT31;64036;48.266;14.192;2023-06-22T13:43:30;33.29;44.37
75457;SHT31;64036;48.266;14.192;2023-06-22T13:45:56;33.32;44.62
75457;SHT31;64036;48.266;14.192;2023-06-22T13:48:21;33.27;44.71
75457;SHT31;64036;48.266;14.192;2023-06-22T13:50:48;33.25;44.96
75457;SHT31;64036;48.266;14.192;2023-06-22T13:53:14;33.27;45.02
75457;SHT31;64036;48.266;14.192;2023-06-22T13:55:40;33.26;44.50
75457;SHT31;64036;48.266;14.192;2023-06-22T13:58:06;33.29;43.89
75457;SHT31;64036;48.266;14.192;2023-06-22T14:00:32;33.26;44.33
75457;SHT31;64036;48.266;14.192;2023-06-22T14:02:57;33.18;45.38
75457;SHT31;64036;48.266;14.192;2023-06-22T14:05:23;33.15;45.74
75457;SHT31;64036;48.266;14.192;2023-06-22T14:07:48;33.15;45.15
75457;SHT31;64036;48.266;14.192;2023-06-22T14:10:14;33.12;44.65
75457;SHT31;64036;48.266;14.192;2023-06-22T14:12:40;33.11;44.97
75457;SHT31;64036;48.266;14.192;2023-06-22T14:15:05;33.09;44.52
75457;SHT31;64036;48.266;14.192;2023-06-22T14:17:31;33.10;44.76
75457;SHT31;64036;48.266;14.192;2023-06-22T14:19:57;33.06;45.34
75457;SHT31;64036;48.266;14.192;2023-06-22T14:22:23;33.02;45.38
75457;SHT31;64036;48.266;14.192;2023-06-22T14:24:49;32.97;45.43
75457;SHT31;64036;48.266;14.192;2023-06-22T14:27:15;32.94;45.14
75457;SHT31;64036;48.266;14.192;2023-06-22T14:29:41;32.93;46.12
75457;SHT31;64036;48.266;14.192;2023-06-22T14:32:08;32.92;46.99
75457;SHT31;64036;48.266;14.192;2023-06-22T14:34:34;32.83;47.24
75457;SHT31;64036;48.266;14.192;2023-06-22T14:37:05;32.74;47.92
75457;SHT31;64036;48.266;14.192;2023-06-22T14:39:32;32.68;48.36
75457;SHT31;64036;48.266;14.192;2023-06-22T14:41:58;32.58;48.68
75457;SHT31;64036;48.266;14.192;2023-06-22T14:44:25;32.52;49.19
75457;SHT31;64036;48.266;14.192;2023-06-22T14:46:54;32.51;49.33
75457;SHT31;64036;48.266;14.192;2023-06-22T14:49:20;32.51;48.58
75457;SHT31;64036;48.266;14.192;2023-06-22T14:51:46;32.57;48.46
75457;SHT31;64036;48.266;14.192;2023-06-22T14:54:12;32.60;48.60
75457;SHT31;64036;48.266;14.192;2023-06-22T14:56:37;32.60;48.77
75457;SHT31;64036;48.266;14.192;2023-06-22T14:59:03;32.58;48.74
75457;SHT31;64036;48.266;14.192;2023-06-22T15:01:28;32.56;48.89
75457;SHT31;64036;48.266;14.192;2023-06-22T15:03:54;32.52;49.69
75457;SHT31;64036;48.266;14.192;2023-06-22T15:06:21;32.45;49.95
75457;SHT31;64036;48.266;14.192;2023-06-22T15:08:47;32.33;50.79
75457;SHT31;64036;48.266;14.192;2023-06-22T15:11:12;32.31;50.19
75457;SHT31;64036;48.266;14.192;2023-06-22T15:13:38;32.33;49.40
75457;SHT31;64036;48.266;14.192;2023-06-22T15:16:05;32.35;49.78
75457;SHT31;64036;48.266;14.192;2023-06-22T15:18:31;32.25;49.58
75457;SHT31;64036;48.266;14.192;2023-06-22T15:21:00;32.19;49.97
75457;SHT31;64036;48.266;14.192;2023-06-22T15:23:27;32.10;50.50